Terminal Aerodrome Forecast
Issued by NWS Memphis, TN

Home | Current Version | Previous Version | Text Only | Print | Product List | Glossary On
Versions: 1 2 3 4 5 6 7 8 9 10 11 12 13 14 15 16 17 18 19 20 21 22 23 24 25 26 27 28 29
000
FTUS44 KMEG 282328
TAFMEM
TAF
KMEM 282328Z 2900/2924 19011KT P6SM SCT250 WS015/21040KT
     FM290900 19012G16KT P6SM SCT009 BKN025 WS015/23045KT
     FM291200 19012G18KT P6SM BKN009 OVC025
     FM291500 20015G22KT P6SM OVC010
     FM291800 20015G25KT P6SM BKN025=

USA.gov is the U.S. government's official web portal to all federal, state and local government web resources and services.